Crane, MT (59217)

9:21 PM MST on March 03, 2015 (GMT -0700)
Sidney-Richland Municipal | Change Station
CLOSE
Current Station
Airport
Location: Sidney-Richland,
Elevation: 1985 ft
Nearby Weather Stations
Active Advisory: Wind Chill Advisory

Elev 1985 ft 47.71 °N, 104.19 °W | Updated 6 minutes ago

Partly Cloudy
Partly Cloudy
7 °F
Feels Like -9 °F
N
13
Wind Variable Wind from NW
Gusts 22 mph

Today
High -- | Low -- °F
--% Chance of Precip.
Yesterday
High -- | Low -- °F
Precip. -- in
6:33 AM 5:44 PM
Waxing Gibbous, 98% visible
Pressure 30.09 in
Visibility 10.0 miles
Clouds Few 4400 ft
Few 5000 ft
Windchill -9 °F
Dew Point -4 °F
Humidity 61%
Rainfall 0.00 in
Snow Depth Not available.
UV 0 out of 12
Pollen .10 out of 12
Air Quality Not available.
Flu Activity Not available.
METAR KSDY 040415Z AUTO 32011G19KT 10SM FEW044 FEW050 M14/M20 A3009 RMK AO1

More Conditions Fewer Conditions

Pressure 30.09 in
Visibility 10.0 miles
Clouds Few 4400 ft
Few 5000 ft
Windchill -9 °F
Dew Point -4 °F
Humidity 61%
Rainfall 0.00 in
Snow Depth Not available.
UV 0 out of 12
Pollen .10 out of 12
Air Quality Not available.
Flu Activity Not available.
METAR KSDY 040415Z AUTO 32011G19KT 10SM FEW044 FEW050 M14/M20 A3009 RMK AO1

More Conditions Fewer Conditions

10-Day Weather Forecast

Almanac

Astronomy

Mar. 03, 2015 Rise Set
Actual Time
Civil Twilight
Nautical Twilight
Astronomical Twilight
Moon
Length of Visible Light
Length of Day
Tomorrow will be .
, % of the Moon is Illuminated

Today's Extremes

State Highs State Lows

Community

WunderPhotos

Upload Photos

1,802,383 photos uploaded!

WunderBlogs® & News

Nearby

Air Quality

  Air Quality AQ Index Pollutant
Not available.

Snow Depth

Station Depth Elevation

Earthquake Activity

City Distance Mag. Time & Date
Minimum magnitude displayed is 2.5.

Coastal Water Temperatures

Place Temperature

Nearby Weather Stations

Wind Chill Advisory
Statement as of 2:07 PM MST on March 03, 2015

... Wind Chill Advisory remains in effect until noon MST
Wednesday...

A Wind Chill Advisory remains in effect until noon MST Wednesday.

* Timing... tonight through early Wednesday morning.

* Wind chill values... 20 to 35 below.

* Main impacts... frostbite can occur within 30 minutes to
unprotected skin. Pets and Young livestock will be at risk
due to these harsh winter conditions.

Precautionary/preparedness actions...

Try to dress adequately. Be sure to wear layered light weight and
wind proof clothing... and wear a hat and mittens for protection
from the dangers of frostbite.

Pets and Newborn livestock should also be protected from these
conditions.